Morris, Oklahoma
Current Conditions -  °F | °C
As of 7:55 AM on Monday 24 Nov 2014 (Local Time) from KOKM Reporting Station
Clear Clear  
Wind Chill: 31°   Ceiling: Unl
Heat Index: 37°   Visibility: 10mi
Dew Point: 29°   Wind: 8mph
Humidity: 73%   Direction: 260°W
Pressure: 29.91"   Gusts: NA
Location:  35.61°N, 95.86°W
Report Text: KOKM 241355Z AUTO 26007KT 10SM CLR 03/M01 A2991 RMK AO2 T00301015
Loading
Personal Weather Stations






























Interactive Weather Map New forecast layout! Learn more

10-Day Weather Forecast

Advertisements
Track Severe Weather on mobile